createdAt,value
2022-12-08T00:00:54.257Z,87
2022-12-08T00:02:00.966Z,87
2022-12-08T00:03:08.119Z,87
2022-12-08T00:04:15.074Z,87
2022-12-08T00:05:22.184Z,87
2022-12-08T00:06:29.237Z,87
2022-12-08T00:07:35.940Z,87
2022-12-08T00:08:43.311Z,87
2022-12-08T00:09:50.022Z,87
2022-12-08T00:10:57.141Z,87
2022-12-08T00:12:04.283Z,86
2022-12-08T00:13:10.956Z,86
2022-12-08T00:14:18.002Z,86
2022-12-08T00:15:25.101Z,86
2022-12-08T00:16:32.282Z,86
2022-12-08T00:17:39.268Z,86
2022-12-08T00:18:45.877Z,86
2022-12-08T00:19:53.073Z,86
2022-12-08T00:21:00.060Z,86
2022-12-08T00:22:07.139Z,86
2022-12-08T00:23:13.787Z,86
2022-12-08T00:24:20.951Z,86
2022-12-08T00:25:28.062Z,86
2022-12-08T00:26:35.082Z,86
2022-12-08T00:27:42.182Z,87
2022-12-08T00:28:49.347Z,86
2022-12-08T00:29:55.928Z,86
2022-12-08T00:31:03.052Z,86
2022-12-08T00:32:10.139Z,86
2022-12-08T00:33:17.191Z,86
2022-12-08T00:34:23.798Z,86
2022-12-08T00:35:30.935Z,86
2022-12-08T00:36:39.542Z,86
2022-12-08T00:37:45.105Z,87
2022-12-08T00:38:52.211Z,86
2022-12-08T00:39:58.751Z,86
2022-12-08T00:41:05.913Z,87
2022-12-08T00:42:13.093Z,87
2022-12-08T00:43:20.077Z,87
2022-12-08T00:44:27.251Z,87
2022-12-08T00:45:33.875Z,87
2022-12-08T00:46:40.917Z,87
2022-12-08T00:47:48.112Z,87
2022-12-08T00:48:55.118Z,87
2022-12-08T00:50:02.812Z,87
2022-12-08T00:51:08.856Z,87
2022-12-08T00:52:15.900Z,87
2022-12-08T00:53:23.030Z,87
2022-12-08T00:54:30.092Z,87
2022-12-08T00:55:37.230Z,87
2022-12-08T00:56:43.893Z,87
2022-12-08T00:57:50.931Z,87
2022-12-08T01:00:06.114Z,87
2022-12-08T01:01:12.289Z,87
2022-12-08T01:02:18.799Z,87
2022-12-08T01:03:25.990Z,87
2022-12-08T01:04:33.018Z,87
2022-12-08T01:05:40.130Z,87
2022-12-08T01:06:47.319Z,87
2022-12-08T01:07:53.931Z,87
2022-12-08T01:09:00.930Z,87
2022-12-08T01:10:07.996Z,87
2022-12-08T01:11:15.237Z,87
2022-12-08T01:12:22.280Z,87
2022-12-08T01:13:28.820Z,87
2022-12-08T01:14:35.953Z,87
2022-12-08T01:15:45.162Z,87
2022-12-08T01:16:50.219Z,87
2022-12-08T01:17:57.217Z,86
2022-12-08T01:19:03.820Z,86
2022-12-08T01:20:10.946Z,87
2022-12-08T01:21:18.053Z,86
2022-12-08T01:22:25.179Z,86
2022-12-08T01:23:32.271Z,86
2022-12-08T01:24:38.864Z,87
2022-12-08T01:25:45.976Z,87
2022-12-08T01:26:53.159Z,87
2022-12-08T01:29:07.227Z,87
2022-12-08T01:30:13.855Z,87
2022-12-08T01:31:21.077Z,87
2022-12-08T01:32:28.078Z,87
2022-12-08T01:33:35.170Z,87
2022-12-08T01:34:42.302Z,87
2022-12-08T01:35:48.869Z,87
2022-12-08T01:36:56.011Z,87
2022-12-08T01:38:03.099Z,87
2022-12-08T01:39:10.180Z,87
2022-12-08T01:40:17.280Z,87
2022-12-08T01:41:23.914Z,87
2022-12-08T01:42:31.020Z,87
2022-12-08T01:43:38.052Z,87
2022-12-08T01:44:45.189Z,87
2022-12-08T01:45:52.369Z,87
2022-12-08T01:46:58.905Z,87
2022-12-08T01:48:06.069Z,88
2022-12-08T01:49:13.081Z,87
2022-12-08T01:50:20.206Z,88
2022-12-08T01:51:27.322Z,87
2022-12-08T01:52:33.883Z,87
2022-12-08T01:53:41.004Z,88
2022-12-08T01:54:48.076Z,88
2022-12-08T01:55:55.206Z,88
2022-12-08T01:57:02.330Z,87
2022-12-08T01:58:08.850Z,87
2022-12-08T01:59:16.018Z,87
2022-12-08T02:00:23.100Z,87
2022-12-08T02:01:30.296Z,87
2022-12-08T02:03:43.920Z,87
2022-12-08T02:04:51.556Z,87
2022-12-08T02:05:58.102Z,87
2022-12-08T02:07:08.200Z,87
2022-12-08T02:08:12.425Z,87
2022-12-08T02:09:18.900Z,87
2022-12-08T02:10:26.026Z,87
2022-12-08T02:11:33.199Z,87
2022-12-08T02:12:40.362Z,87
2022-12-08T02:13:47.304Z,87
2022-12-08T02:14:53.923Z,87
2022-12-08T02:16:01.040Z,87
2022-12-08T02:17:08.168Z,87
2022-12-08T02:18:15.241Z,87
2022-12-08T02:19:30.689Z,87
2022-12-08T02:20:28.887Z,87
2022-12-08T02:21:36.081Z,87
2022-12-08T02:23:50.224Z,87
2022-12-08T02:24:57.337Z,87
2022-12-08T02:26:03.925Z,87
2022-12-08T02:27:11.099Z,87
2022-12-08T02:28:18.129Z,87
2022-12-08T02:29:25.270Z,87
2022-12-08T02:30:32.403Z,87
2022-12-08T02:31:38.928Z,87
2022-12-08T02:32:46.059Z,87
2022-12-08T02:33:53.204Z,87
2022-12-08T02:35:00.278Z,87
2022-12-08T02:36:07.357Z,87
2022-12-08T02:37:14.020Z,87
2022-12-08T02:38:21.158Z,87
2022-12-08T02:39:28.144Z,87
2022-12-08T02:40:35.278Z,87
2022-12-08T02:41:42.450Z,87
2022-12-08T02:42:48.941Z,87
2022-12-08T02:43:56.079Z,87
2022-12-08T02:45:03.199Z,87
2022-12-08T02:46:10.316Z,87
2022-12-08T02:47:17.446Z,87
2022-12-08T02:48:23.991Z,87
2022-12-08T02:49:31.083Z,87
2022-12-08T02:50:38.146Z,88
2022-12-08T02:51:45.262Z,87
2022-12-08T02:52:52.369Z,88
2022-12-08T02:53:59.022Z,88
2022-12-08T02:55:06.128Z,88
2022-12-08T02:57:20.360Z,87
2022-12-08T02:58:27.351Z,87
2022-12-08T02:59:33.977Z,87
2022-12-08T03:00:41.079Z,88
2022-12-08T03:01:48.371Z,88
2022-12-08T03:02:55.349Z,88
2022-12-08T03:05:08.944Z,88
2022-12-08T03:07:23.241Z,88
2022-12-08T03:08:30.377Z,88
2022-12-08T03:09:36.875Z,88
2022-12-08T03:10:43.989Z,88
2022-12-08T03:11:51.168Z,88
2022-12-08T03:12:58.198Z,88
2022-12-08T03:14:05.338Z,88
2022-12-08T03:15:12.020Z,88
2022-12-08T03:16:19.076Z,88
2022-12-08T03:17:26.104Z,88
2022-12-08T03:18:33.239Z,87
2022-12-08T03:19:40.307Z,87
2022-12-08T03:20:46.871Z,87
2022-12-08T03:21:54.063Z,87
2022-12-08T03:23:01.084Z,87
2022-12-08T03:24:08.198Z,88
2022-12-08T03:25:15.456Z,88
2022-12-08T03:26:22.000Z,88
2022-12-08T03:27:28.999Z,87
2022-12-08T03:28:36.087Z,88
2022-12-08T03:29:43.252Z,87
2022-12-08T03:30:50.350Z,88
2022-12-08T03:31:56.950Z,88
2022-12-08T03:33:04.566Z,88
2022-12-08T03:34:11.130Z,88
2022-12-08T03:35:18.210Z,88
2022-12-08T03:36:25.494Z,88
2022-12-08T03:37:31.980Z,88
2022-12-08T03:38:39.022Z,88
2022-12-08T03:39:46.133Z,88
2022-12-08T03:40:53.268Z,88
2022-12-08T03:42:00.350Z,87
2022-12-08T03:43:06.900Z,88
2022-12-08T03:44:14.064Z,88
2022-12-08T03:47:35.448Z,88
2022-12-08T03:48:41.944Z,88
2022-12-08T03:49:49.007Z,88
2022-12-08T03:50:56.125Z,88
2022-12-08T03:52:03.343Z,88
2022-12-08T03:53:10.381Z,88
2022-12-08T03:54:16.958Z,88
2022-12-08T03:55:24.045Z,88
2022-12-08T03:56:31.164Z,88
2022-12-08T03:57:38.244Z,88
2022-12-08T03:58:45.403Z,88
2022-12-08T03:59:51.981Z,88
2022-12-08T04:00:59.028Z,88
2022-12-08T04:02:06.413Z,88
2022-12-08T04:03:13.384Z,88
2022-12-08T04:04:20.388Z,88
2022-12-08T04:05:26.952Z,88
2022-12-08T04:06:34.130Z,88
2022-12-08T04:07:41.243Z,88
2022-12-08T04:08:48.283Z,88
2022-12-08T04:11:01.983Z,88
2022-12-08T04:12:09.052Z,89
2022-12-08T04:13:16.307Z,88
2022-12-08T04:14:23.263Z,88
2022-12-08T04:15:30.412Z,88
2022-12-08T04:16:37.170Z,89
2022-12-08T04:17:44.094Z,89
2022-12-08T04:18:51.195Z,89
2022-12-08T04:19:58.269Z,89
2022-12-08T04:21:05.404Z,89
2022-12-08T04:22:12.047Z,89
2022-12-08T04:23:19.067Z,89
2022-12-08T04:25:33.308Z,89
2022-12-08T04:27:47.029Z,89
2022-12-08T04:28:54.120Z,89
2022-12-08T04:30:01.258Z,89
2022-12-08T04:31:08.364Z,89
2022-12-08T04:32:15.412Z,89
2022-12-08T04:33:22.001Z,89
2022-12-08T04:34:29.088Z,89
2022-12-08T04:35:36.218Z,89
2022-12-08T04:36:43.401Z,89
2022-12-08T04:37:50.420Z,89
2022-12-08T04:38:56.993Z,89
2022-12-08T04:40:04.343Z,89
2022-12-08T04:41:11.241Z,89
2022-12-08T04:42:18.375Z,89
2022-12-08T04:43:25.432Z,89
2022-12-08T04:44:32.052Z,89
2022-12-08T04:45:39.081Z,89
2022-12-08T04:46:46.312Z,89
2022-12-08T04:47:53.353Z,89
2022-12-08T04:49:00.402Z,89
2022-12-08T04:50:07.224Z,89
2022-12-08T04:51:14.126Z,89
2022-12-08T04:52:21.283Z,89
2022-12-08T04:53:28.320Z,89
2022-12-08T04:54:35.458Z,89
2022-12-08T04:55:45.151Z,89
2022-12-08T04:56:49.182Z,89
2022-12-08T04:57:56.273Z,89
2022-12-08T04:59:03.376Z,90
2022-12-08T05:00:10.463Z,90
2022-12-08T05:01:17.645Z,90
2022-12-08T05:02:24.207Z,90
2022-12-08T05:03:31.261Z,90
2022-12-08T05:04:38.359Z,90
2022-12-08T05:05:45.420Z,90
2022-12-08T05:06:52.128Z,90
2022-12-08T05:09:06.277Z,90
2022-12-08T05:10:13.383Z,90
2022-12-08T05:11:20.476Z,90
2022-12-08T05:12:27.114Z,90
2022-12-08T05:14:41.269Z,90
2022-12-08T05:15:48.343Z,90
2022-12-08T05:16:55.490Z,90
2022-12-08T05:18:02.055Z,90
2022-12-08T05:19:09.466Z,90
2022-12-08T05:20:16.283Z,90
2022-12-08T05:21:23.421Z,90
2022-12-08T05:22:29.938Z,90
2022-12-08T05:23:37.057Z,90
2022-12-08T05:24:47.416Z,90
2022-12-08T05:25:51.298Z,90
2022-12-08T05:26:58.462Z,90
2022-12-08T05:28:32.721Z,90
2022-12-08T05:29:12.100Z,90
2022-12-08T05:30:19.172Z,91
2022-12-08T05:31:26.347Z,91
2022-12-08T05:32:33.431Z,91
2022-12-08T05:33:40.514Z,91
2022-12-08T05:34:47.043Z,91
2022-12-08T05:35:54.210Z,91
2022-12-08T05:37:01.363Z,91
2022-12-08T05:38:08.370Z,91
2022-12-08T05:39:15.503Z,91
2022-12-08T05:40:22.093Z,91
2022-12-08T05:41:29.231Z,91
2022-12-08T05:42:36.262Z,91
2022-12-08T05:43:43.439Z,91
2022-12-08T05:44:49.954Z,91
2022-12-08T05:45:57.157Z,91
2022-12-08T05:47:04.252Z,91
2022-12-08T05:48:11.301Z,91
2022-12-08T05:50:25.012Z,91
2022-12-08T05:51:32.186Z,91
2022-12-08T05:53:46.331Z,91
2022-12-08T05:54:53.413Z,91
2022-12-08T05:55:59.990Z,91
2022-12-08T05:57:07.156Z,91
2022-12-08T05:58:14.213Z,91
2022-12-08T05:59:21.349Z,91
2022-12-08T06:00:28.419Z,91
2022-12-08T06:01:35.098Z,91
2022-12-08T06:02:42.277Z,91
2022-12-08T06:03:49.201Z,91
2022-12-08T06:04:56.328Z,92
2022-12-08T06:06:03.460Z,92
2022-12-08T06:07:15.832Z,92
2022-12-08T06:08:17.159Z,92
2022-12-08T06:09:24.225Z,92
2022-12-08T06:10:31.358Z,92
2022-12-08T06:11:38.499Z,92
2022-12-08T06:12:45.020Z,92
2022-12-08T06:13:52.164Z,92
2022-12-08T06:14:59.228Z,92
2022-12-08T06:16:06.435Z,92
2022-12-08T06:18:20.099Z,92
2022-12-08T06:19:27.120Z,92
2022-12-08T06:20:34.259Z,92
2022-12-08T06:21:41.404Z,92
2022-12-08T06:22:48.446Z,92
2022-12-08T06:23:55.062Z,92
2022-12-08T06:25:05.914Z,92
2022-12-08T06:26:09.325Z,92
2022-12-08T06:27:16.451Z,92
2022-12-08T06:28:23.492Z,92
2022-12-08T06:29:30.591Z,92
2022-12-08T06:31:44.459Z,92
2022-12-08T06:32:51.368Z,92
2022-12-08T06:33:58.459Z,92
2022-12-08T06:35:05.080Z,92
2022-12-08T06:36:12.211Z,92
2022-12-08T06:37:19.246Z,92
2022-12-08T06:38:26.380Z,92
2022-12-08T06:39:33.501Z,92
2022-12-08T06:40:40.057Z,92
2022-12-08T06:41:47.211Z,92
2022-12-08T06:42:54.277Z,92
2022-12-08T06:44:01.389Z,92
2022-12-08T06:45:08.461Z,92
2022-12-08T06:46:15.188Z,92
2022-12-08T06:47:26.068Z,93
2022-12-08T06:48:29.259Z,92
2022-12-08T06:49:36.419Z,92
2022-12-08T06:50:43.489Z,93
2022-12-08T06:51:50.083Z,93
2022-12-08T06:53:04.873Z,93
2022-12-08T06:54:04.286Z,93
2022-12-08T06:55:24.674Z,93
2022-12-08T06:56:18.465Z,93
2022-12-08T06:57:25.160Z,93
2022-12-08T06:58:32.202Z,93
2022-12-08T06:59:39.268Z,93
2022-12-08T07:00:46.460Z,93
2022-12-08T07:01:53.662Z,93
2022-12-08T07:03:00.191Z,93
2022-12-08T07:04:07.193Z,93
2022-12-08T07:05:14.309Z,93
2022-12-08T07:06:21.412Z,93
2022-12-08T07:07:28.497Z,93
2022-12-08T07:08:35.248Z,93
2022-12-08T07:09:42.192Z,93
2022-12-08T07:10:49.311Z,93
2022-12-08T07:13:03.604Z,93
2022-12-08T07:14:10.101Z,93
2022-12-08T07:15:17.184Z,93
2022-12-08T07:16:24.386Z,93
2022-12-08T07:17:31.459Z,93
2022-12-08T07:18:38.500Z,93
2022-12-08T07:19:45.130Z,93
2022-12-08T07:21:59.372Z,93
2022-12-08T07:23:06.460Z,93
2022-12-08T07:24:13.545Z,93
2022-12-08T07:25:20.105Z,93
2022-12-08T07:26:27.200Z,93
2022-12-08T07:27:34.423Z,93
2022-12-08T07:28:41.442Z,93
2022-12-08T07:29:48.521Z,93
2022-12-08T07:30:55.208Z,93
2022-12-08T07:32:02.299Z,93
2022-12-08T07:33:09.325Z,93
2022-12-08T07:34:16.481Z,93
2022-12-08T07:35:23.634Z,93
2022-12-08T07:36:30.149Z,93
2022-12-08T07:37:37.310Z,93
2022-12-08T07:38:44.367Z,93
2022-12-08T07:39:51.605Z,93
2022-12-08T07:40:58.536Z,93
2022-12-08T07:42:05.162Z,93
2022-12-08T07:43:12.231Z,93
2022-12-08T07:44:19.363Z,93
2022-12-08T07:45:31.464Z,93
2022-12-08T07:46:33.682Z,93
2022-12-08T07:47:40.140Z,93
2022-12-08T07:48:47.239Z,93
2022-12-08T07:49:54.336Z,93
2022-12-08T07:51:01.476Z,93
2022-12-08T07:52:08.639Z,93
2022-12-08T07:54:22.267Z,93
2022-12-08T07:55:29.359Z,93
2022-12-08T07:56:36.501Z,94
2022-12-08T07:57:43.601Z,94
2022-12-08T07:58:50.177Z,93
2022-12-08T07:59:57.248Z,94
2022-12-08T08:01:04.519Z,93
2022-12-08T08:02:24.369Z,94
2022-12-08T08:03:18.072Z,94
2022-12-08T08:04:25.290Z,94
2022-12-08T08:05:32.430Z,94
2022-12-08T08:06:39.370Z,94
2022-12-08T08:07:46.615Z,94
2022-12-08T08:08:53.101Z,94
2022-12-08T08:10:00.196Z,94
2022-12-08T08:11:15.814Z,94
2022-12-08T08:12:30.737Z,94
2022-12-08T08:13:21.594Z,94
2022-12-08T08:14:28.100Z,94
2022-12-08T08:15:35.363Z,94
2022-12-08T08:16:42.444Z,94
2022-12-08T08:17:49.405Z,94
2022-12-08T08:18:56.571Z,94
2022-12-08T08:20:03.379Z,94
2022-12-08T08:21:43.083Z,94
2022-12-08T08:22:17.300Z,94
2022-12-08T08:23:24.425Z,94
2022-12-08T08:25:38.204Z,94
2022-12-08T08:26:45.220Z,94
2022-12-08T08:27:52.336Z,94
2022-12-08T08:28:59.397Z,94
2022-12-08T08:30:06.991Z,94
2022-12-08T08:31:13.319Z,94
2022-12-08T08:32:20.238Z,94
2022-12-08T08:33:27.311Z,94
2022-12-08T08:35:41.526Z,94
2022-12-08T08:36:48.160Z,94
2022-12-08T08:37:55.223Z,95
2022-12-08T08:39:02.345Z,97
2022-12-08T08:40:09.430Z,97
2022-12-08T08:41:16.508Z,97
2022-12-08T08:42:23.202Z,97
2022-12-08T08:43:35.973Z,99
2022-12-08T08:44:37.344Z,97
2022-12-08T08:45:45.279Z,97
2022-12-08T08:46:51.574Z,99
2022-12-08T08:47:58.147Z,99
2022-12-08T08:50:12.363Z,99
2022-12-08T08:51:19.431Z,99
2022-12-08T08:52:26.606Z,99
2022-12-08T08:53:33.162Z,97
2022-12-08T08:54:40.288Z,97
2022-12-08T08:55:47.342Z,97
2022-12-08T08:56:54.534Z,97
2022-12-08T08:58:01.601Z,97
2022-12-08T08:59:08.176Z,97
2022-12-08T09:00:15.272Z,97
2022-12-08T09:01:22.501Z,95
2022-12-08T09:02:29.504Z,95
2022-12-08T09:03:36.672Z,95
2022-12-08T09:04:43.305Z,94
2022-12-08T09:05:50.395Z,95
2022-12-08T09:06:57.412Z,94
2022-12-08T09:08:04.595Z,95
2022-12-08T09:09:11.585Z,94
2022-12-08T09:10:18.153Z,95
2022-12-08T09:11:25.268Z,94
2022-12-08T09:12:32.489Z,95
2022-12-08T09:13:39.454Z,95
2022-12-08T09:14:46.607Z,95
2022-12-08T09:17:00.337Z,97
2022-12-08T09:18:07.399Z,97
2022-12-08T09:19:14.518Z,97
2022-12-08T09:20:21.603Z,97
2022-12-08T09:21:28.157Z,97
2022-12-08T09:22:35.354Z,97
2022-12-08T09:23:42.420Z,97
2022-12-08T09:24:49.476Z,97
2022-12-08T09:25:56.623Z,95
2022-12-08T09:27:03.260Z,95
2022-12-08T09:29:17.390Z,97
2022-12-08T09:30:24.498Z,97
2022-12-08T09:31:31.675Z,97
2022-12-08T09:32:38.309Z,97
2022-12-08T09:33:45.322Z,97
2022-12-08T09:34:52.536Z,97
2022-12-08T09:35:59.514Z,97
2022-12-08T09:37:06.680Z,99
2022-12-08T09:38:13.228Z,99
2022-12-08T09:39:20.333Z,99
2022-12-08T09:40:27.487Z,99
2022-12-08T09:41:39.219Z,99
2022-12-08T09:42:41.193Z,99
2022-12-08T09:43:48.208Z,99
2022-12-08T09:44:55.350Z,99
2022-12-08T09:46:02.529Z,99
2022-12-08T09:47:09.593Z,99
2022-12-08T09:48:16.607Z,99
2022-12-08T09:49:23.251Z,99
2022-12-08T09:50:30.321Z,99
2022-12-08T09:51:37.422Z,99
2022-12-08T09:52:44.571Z,99
2022-12-08T09:53:51.148Z,99
2022-12-08T09:54:58.212Z,99
2022-12-08T09:56:05.338Z,99
2022-12-08T09:58:19.594Z,99
2022-12-08T09:59:26.163Z,99
2022-12-08T10:00:33.259Z,99
2022-12-08T10:01:40.479Z,99
2022-12-08T10:02:47.422Z,99
2022-12-08T10:03:54.703Z,99
2022-12-08T10:05:01.227Z,99
2022-12-08T10:06:08.226Z,99
2022-12-08T10:07:15.392Z,99
2022-12-08T10:08:22.557Z,99
2022-12-08T10:09:29.559Z,99
2022-12-08T10:10:36.145Z,99
2022-12-08T10:11:43.312Z,99
2022-12-08T10:12:50.377Z,99
2022-12-08T10:13:57.431Z,99
2022-12-08T10:15:05.646Z,99
2022-12-08T10:16:17.059Z,99
2022-12-08T10:18:25.418Z,99
2022-12-08T10:19:32.480Z,99
2022-12-08T10:20:39.580Z,99
2022-12-08T10:21:46.221Z,99
2022-12-08T10:22:53.277Z,99
2022-12-08T10:24:00.395Z,99
2022-12-08T10:25:07.462Z,99
2022-12-08T10:26:14.613Z,99
2022-12-08T10:27:21.271Z,99
2022-12-08T10:28:28.251Z,99
2022-12-08T10:29:35.401Z,99
2022-12-08T10:30:42.499Z,99
2022-12-08T10:32:56.254Z,99
2022-12-08T10:34:03.290Z,99
2022-12-08T10:35:10.410Z,99
2022-12-08T10:36:17.492Z,99
2022-12-08T10:37:24.693Z,99
2022-12-08T10:39:38.251Z,99
2022-12-08T10:40:45.870Z,99
2022-12-08T10:41:52.573Z,99
2022-12-08T10:42:59.611Z,99
2022-12-08T10:44:06.197Z,99
2022-12-08T10:45:13.334Z,99
2022-12-08T10:46:20.584Z,99
2022-12-08T10:47:27.516Z,99
2022-12-08T10:48:34.638Z,99
2022-12-08T10:49:41.230Z,99
2022-12-08T10:50:49.317Z,99
2022-12-08T10:51:55.501Z,99
2022-12-08T10:53:02.522Z,99
2022-12-08T10:54:09.620Z,99
2022-12-08T10:55:16.245Z,99
2022-12-08T10:56:23.303Z,99
2022-12-08T10:57:30.478Z,99
2022-12-08T10:58:37.493Z,99
2022-12-08T10:59:44.634Z,99
2022-12-08T11:00:51.430Z,99
2022-12-08T11:01:58.621Z,99
2022-12-08T11:03:05.540Z,99
2022-12-08T11:04:12.552Z,99
2022-12-08T11:05:19.726Z,99
2022-12-08T11:06:26.234Z,99
2022-12-08T11:07:33.402Z,99
2022-12-08T11:08:40.462Z,99
2022-12-08T11:09:47.960Z,99
2022-12-08T11:10:54.650Z,99
2022-12-08T11:12:01.287Z,99
2022-12-08T11:13:08.330Z,99
2022-12-08T11:14:15.448Z,99
2022-12-08T11:15:22.566Z,99
2022-12-08T11:16:29.717Z,99
2022-12-08T11:17:36.255Z,99
2022-12-08T11:18:43.439Z,99
2022-12-08T11:20:57.537Z,99
2022-12-08T11:22:04.760Z,99
2022-12-08T11:23:11.278Z,99
2022-12-08T11:24:18.349Z,99
2022-12-08T11:25:25.498Z,99
2022-12-08T11:26:32.595Z,99
2022-12-08T11:27:39.722Z,99
2022-12-08T11:28:46.306Z,99
2022-12-08T11:29:53.396Z,99
2022-12-08T11:31:00.490Z,99
2022-12-08T11:32:07.644Z,99
2022-12-08T11:33:14.700Z,99
2022-12-08T11:34:21.273Z,99
2022-12-08T11:36:35.528Z,99
2022-12-08T11:37:42.685Z,99
2022-12-08T11:38:49.681Z,99
2022-12-08T11:39:56.292Z,99
2022-12-08T11:41:03.382Z,99
2022-12-08T11:42:10.664Z,99
2022-12-08T11:43:17.567Z,99
2022-12-08T11:44:24.690Z,99
2022-12-08T11:45:31.355Z,99
2022-12-08T11:46:38.372Z,99
2022-12-08T11:47:45.538Z,99
2022-12-08T11:48:52.651Z,99
2022-12-08T11:49:59.662Z,99
2022-12-08T11:51:06.313Z,99
2022-12-08T11:52:13.460Z,99
2022-12-08T11:53:20.509Z,99
2022-12-08T11:54:28.142Z,99
2022-12-08T11:55:37.357Z,99
2022-12-08T11:56:41.270Z,99
2022-12-08T11:57:48.515Z,99
2022-12-08T11:58:55.521Z,99
2022-12-08T12:00:02.764Z,99
2022-12-08T12:02:16.502Z,99
2022-12-08T12:03:23.496Z,99
2022-12-08T12:04:30.551Z,99
2022-12-08T12:06:05.820Z,99
2022-12-08T12:06:54.913Z,99
2022-12-08T12:07:51.520Z,99
2022-12-08T12:08:58.408Z,99
2022-12-08T12:10:05.817Z,99
2022-12-08T12:11:12.681Z,99
2022-12-08T12:12:19.287Z,99
2022-12-08T12:13:26.341Z,99
2022-12-08T12:14:33.459Z,99
2022-12-08T12:15:40.543Z,99
2022-12-08T12:16:47.664Z,99
2022-12-08T12:17:54.295Z,99
2022-12-08T12:19:02.375Z,99
2022-12-08T12:20:08.454Z,99
2022-12-08T12:21:15.572Z,99
2022-12-08T12:23:29.201Z,99
2022-12-08T12:24:36.479Z,99
2022-12-08T12:25:45.351Z,99
2022-12-08T12:26:50.601Z,99
2022-12-08T12:27:57.725Z,99
2022-12-08T12:29:04.259Z,99
2022-12-08T12:30:11.352Z,99
2022-12-08T12:31:18.532Z,99
2022-12-08T12:32:25.648Z,99
2022-12-08T12:33:32.663Z,99
2022-12-08T12:34:39.213Z,99
2022-12-08T12:35:46.383Z,99
2022-12-08T12:36:53.481Z,99
2022-12-08T12:38:00.555Z,99
2022-12-08T12:40:14.252Z,99
2022-12-08T12:41:25.364Z,99
2022-12-08T12:43:35.646Z,99
2022-12-08T12:44:42.651Z,99
2022-12-08T12:45:49.273Z,99
2022-12-08T12:46:56.428Z,99
2022-12-08T12:48:03.466Z,99
2022-12-08T12:49:10.582Z,99
2022-12-08T12:50:17.649Z,99
2022-12-08T12:51:24.292Z,99
2022-12-08T12:52:31.352Z,99
2022-12-08T12:53:38.459Z,99
2022-12-08T12:54:45.626Z,99
2022-12-08T12:55:52.687Z,99
2022-12-08T12:56:59.301Z,99
2022-12-08T12:58:06.879Z,99
2022-12-08T12:59:13.501Z,99
2022-12-08T13:00:20.598Z,99
2022-12-08T13:01:27.708Z,99
2022-12-08T13:02:34.444Z,99
2022-12-08T13:03:41.427Z,99
2022-12-08T13:04:48.509Z,99
2022-12-08T13:05:55.606Z,99
2022-12-08T13:07:02.713Z,99
2022-12-08T13:08:09.301Z,99
2022-12-08T13:09:16.393Z,99
2022-12-08T13:10:23.523Z,99
2022-12-08T13:11:30.627Z,99
2022-12-08T13:12:37.743Z,99
2022-12-08T13:13:44.294Z,99
2022-12-08T13:14:51.434Z,99
2022-12-08T13:15:58.492Z,99
2022-12-08T13:17:05.788Z,99
2022-12-08T13:18:12.697Z,99
2022-12-08T13:19:19.261Z,99
2022-12-08T13:20:26.388Z,99
2022-12-08T13:21:33.522Z,99
2022-12-08T13:22:40.703Z,99
2022-12-08T13:24:54.311Z,99
2022-12-08T13:26:01.409Z,99
2022-12-08T13:27:08.567Z,99
2022-12-08T13:28:15.640Z,99
2022-12-08T13:29:22.727Z,99
2022-12-08T13:30:29.302Z,99
2022-12-08T13:31:36.580Z,99
2022-12-08T13:33:50.633Z,99
2022-12-08T13:34:57.710Z,99
2022-12-08T13:36:04.321Z,99
2022-12-08T13:37:11.444Z,99
2022-12-08T13:38:18.553Z,99
2022-12-08T13:39:25.685Z,99
2022-12-08T13:40:32.759Z,99
2022-12-08T13:41:39.299Z,99
2022-12-08T13:44:20.487Z,99
2022-12-08T13:45:48.787Z,99
2022-12-08T13:47:33.312Z,99
2022-12-08T13:48:30.518Z,99
2022-12-08T13:54:52.337Z,99
2022-12-08T13:57:17.573Z,99
2022-12-08T13:58:24.347Z,99
2022-12-08T13:59:31.475Z,99
2022-12-08T14:00:38.550Z,99
2022-12-08T14:01:46.263Z,99
2022-12-08T14:02:52.343Z,99
2022-12-08T14:04:30.943Z,99
2022-12-08T14:06:13.965Z,99
2022-12-08T14:07:20.688Z,99
2022-12-08T14:08:57.987Z,99
2022-12-08T14:09:34.381Z,99
2022-12-08T14:10:41.509Z,97
2022-12-08T14:11:48.564Z,99
2022-12-08T14:12:55.743Z,97
2022-12-08T14:14:02.318Z,99
2022-12-08T14:15:09.378Z,99
2022-12-08T14:16:16.533Z,99
2022-12-08T14:17:23.664Z,97
2022-12-08T14:18:30.710Z,99
2022-12-08T14:19:37.288Z,97
2022-12-08T14:21:18.877Z,97
2022-12-08T14:21:51.530Z,97
2022-12-08T14:22:58.632Z,97
2022-12-08T14:24:05.727Z,97
2022-12-08T14:25:12.315Z,97
2022-12-08T14:26:19.353Z,99
2022-12-08T14:27:26.541Z,97
2022-12-08T14:28:33.595Z,94
2022-12-08T14:29:40.841Z,94
2022-12-08T14:30:47.299Z,94
2022-12-08T14:31:54.426Z,94
2022-12-08T14:33:01.579Z,94
2022-12-08T14:34:08.616Z,94
2022-12-08T14:35:15.731Z,93
2022-12-08T14:36:22.340Z,94
2022-12-08T14:37:29.444Z,93
2022-12-08T14:38:36.585Z,93
2022-12-08T14:39:43.611Z,93
2022-12-08T14:40:50.719Z,94
2022-12-08T14:41:57.326Z,94
2022-12-08T14:43:04.516Z,93
2022-12-08T14:44:11.540Z,94
2022-12-08T14:45:18.621Z,94
2022-12-08T14:46:25.841Z,94
2022-12-08T14:47:32.340Z,94
2022-12-08T14:48:39.413Z,94
2022-12-08T14:49:46.521Z,97
2022-12-08T14:50:53.668Z,94
2022-12-08T14:52:00.781Z,97
2022-12-08T14:53:07.305Z,97
2022-12-08T14:54:14.534Z,97
2022-12-08T14:55:21.534Z,97
2022-12-08T14:56:28.625Z,94
2022-12-08T14:57:35.804Z,93
2022-12-08T14:58:42.370Z,93
2022-12-08T14:59:49.453Z,93
2022-12-08T15:00:56.550Z,93
2022-12-08T15:02:03.709Z,93
2022-12-08T15:03:10.749Z,93
2022-12-08T15:04:17.359Z,93
2022-12-08T15:05:25.131Z,93
2022-12-08T15:06:31.553Z,93
2022-12-08T15:07:38.828Z,93
2022-12-08T15:08:45.758Z,93
2022-12-08T15:09:52.350Z,93
2022-12-08T15:10:59.454Z,93
2022-12-08T15:12:06.640Z,93
2022-12-08T15:13:13.649Z,93
2022-12-08T15:14:20.760Z,93
2022-12-08T15:15:27.358Z,93
2022-12-08T15:16:34.532Z,92
2022-12-08T15:17:41.609Z,93
2022-12-08T15:19:55.822Z,92
2022-12-08T15:21:02.388Z,92
2022-12-08T15:22:09.581Z,92
2022-12-08T15:23:16.565Z,92
2022-12-08T15:24:23.676Z,92
2022-12-08T15:25:30.812Z,92
2022-12-08T15:26:37.372Z,92
2022-12-08T15:27:50.555Z,92
2022-12-08T15:28:51.573Z,92
2022-12-08T15:29:58.661Z,92
2022-12-08T15:31:05.994Z,92
2022-12-08T15:32:12.470Z,92
2022-12-08T15:33:19.536Z,92
2022-12-08T15:34:26.562Z,92
2022-12-08T15:35:38.939Z,92
2022-12-08T15:36:40.832Z,92
2022-12-08T15:37:47.459Z,92
2022-12-08T15:38:54.513Z,92
2022-12-08T15:40:01.593Z,92
2022-12-08T15:41:14.375Z,92
2022-12-08T15:42:15.818Z,92
2022-12-08T15:43:22.439Z,92
2022-12-08T15:44:29.561Z,92
2022-12-08T15:45:36.615Z,92
2022-12-08T15:46:43.778Z,92
2022-12-08T15:47:50.889Z,92
2022-12-08T15:48:58.333Z,92
2022-12-08T15:51:11.593Z,92
2022-12-08T15:52:18.755Z,92
2022-12-08T15:53:25.334Z,92
2022-12-08T15:54:32.435Z,92
2022-12-08T15:55:39.875Z,92
2022-12-08T15:57:17.232Z,92
2022-12-08T15:58:51.291Z,92
2022-12-08T15:59:00.331Z,92
2022-12-08T16:00:19.126Z,92
2022-12-08T16:01:14.571Z,92
2022-12-08T16:02:22.991Z,92
2022-12-08T16:04:14.297Z,92
2022-12-08T16:06:01.578Z,92
2022-12-08T16:07:20.905Z,92
2022-12-08T16:07:57.831Z,93
2022-12-08T16:10:10.824Z,93
2022-12-08T16:11:56.736Z,92
2022-12-08T16:12:24.779Z,92
2022-12-08T16:13:57.527Z,92
2022-12-08T16:15:57.124Z,92
2022-12-08T16:16:52.462Z,92
2022-12-08T16:17:59.586Z,92
2022-12-08T16:19:06.610Z,92
2022-12-08T16:20:13.763Z,92
2022-12-08T16:23:07.599Z,92
2022-12-08T16:23:43.203Z,92
2022-12-08T16:24:41.674Z,92
2022-12-08T16:26:17.080Z,92
2022-12-08T16:27:58.733Z,92
2022-12-08T16:28:23.217Z,92
2022-12-08T16:29:09.534Z,92
2022-12-08T16:30:16.656Z,92
2022-12-08T16:31:23.916Z,92
2022-12-08T16:32:30.489Z,92
2022-12-08T16:33:37.441Z,92
2022-12-08T16:34:44.591Z,92
2022-12-08T16:35:51.713Z,92
2022-12-08T16:36:58.778Z,92
2022-12-08T16:38:05.446Z,92
2022-12-08T16:39:12.511Z,92
2022-12-08T16:40:19.540Z,92
2022-12-08T16:41:26.650Z,92
2022-12-08T16:42:33.800Z,92
2022-12-08T16:43:40.371Z,92
2022-12-08T16:44:47.442Z,92
2022-12-08T16:45:54.627Z,92
2022-12-08T16:48:08.842Z,92
2022-12-08T16:49:15.400Z,92
2022-12-08T16:50:22.484Z,92
2022-12-08T16:51:29.574Z,92
2022-12-08T16:52:36.658Z,92
2022-12-08T16:54:50.348Z,92
2022-12-08T16:55:57.493Z,92
2022-12-08T16:57:04.632Z,92